createdAt,value
2018-09-17T00:01:14.633Z,98388.09
2018-09-17T00:03:42.973Z,98389.50
2018-09-17T00:06:11.298Z,98392.06
2018-09-17T00:08:39.609Z,98390.77
2018-09-17T00:11:07.917Z,98386.70
2018-09-17T00:13:36.237Z,98386.70
2018-09-17T00:16:04.550Z,98381.62
2018-09-17T00:18:32.845Z,98383.25
2018-09-17T00:21:01.168Z,98378.64
2018-09-17T00:23:29.469Z,98377.90
2018-09-17T00:25:57.766Z,98379.14
2018-09-17T00:28:26.082Z,98373.95
2018-09-17T00:30:54.397Z,98371.75
2018-09-17T00:33:23.526Z,98371.09
2018-09-17T00:35:51.858Z,98367.51
2018-09-17T00:38:20.157Z,98371.00
2018-09-17T00:40:48.487Z,98368.30
2018-09-17T00:43:16.777Z,98378.37
2018-09-17T00:45:45.083Z,98373.52
2018-09-17T00:48:13.389Z,98373.36
2018-09-17T00:50:41.708Z,98364.34
2018-09-17T00:53:10.025Z,98367.11
2018-09-17T00:55:38.349Z,98365.26
2018-09-17T00:58:06.669Z,98368.13
2018-09-17T01:00:34.973Z,98371.92
2018-09-17T01:03:03.277Z,98368.82
2018-09-17T01:05:31.598Z,98371.13
2018-09-17T01:07:59.896Z,98369.72
2018-09-17T01:10:28.197Z,98367.03
2018-09-17T01:12:56.513Z,98363.69
2018-09-17T01:15:24.838Z,98370.06
2018-09-17T01:17:53.149Z,98367.86
2018-09-17T01:20:21.445Z,98362.89
2018-09-17T01:22:49.769Z,98369.39
2018-09-17T01:25:18.069Z,98369.94
2018-09-17T01:27:46.379Z,98371.35
2018-09-17T01:30:14.691Z,98372.62
2018-09-17T01:32:42.998Z,98372.14
2018-09-17T01:35:11.300Z,98376.12
2018-09-17T01:37:39.610Z,98362.20
2018-09-17T01:40:07.930Z,98366.69
2018-09-17T01:42:36.229Z,98374.70
2018-09-17T01:45:04.533Z,98362.52
2018-09-17T01:47:32.846Z,98362.71
2018-09-17T01:50:01.146Z,98365.17
2018-09-17T01:52:29.459Z,98364.80
2018-09-17T01:54:57.757Z,98365.36
2018-09-17T01:57:26.077Z,98366.18
2018-09-17T01:59:54.377Z,98364.89
2018-09-17T02:02:22.683Z,98361.67
2018-09-17T02:04:51.001Z,98358.77
2018-09-17T02:07:19.301Z,98361.45
2018-09-17T02:09:47.694Z,98365.17
2018-09-17T02:12:15.917Z,98363.47
2018-09-17T02:14:44.238Z,98370.13
2018-09-17T02:17:12.537Z,98362.62
2018-09-17T02:19:40.842Z,98376.72
2018-09-17T02:22:09.160Z,98374.86
2018-09-17T02:24:37.468Z,98375.08
2018-09-17T02:27:05.773Z,98368.58
2018-09-17T02:29:34.073Z,98375.99
2018-09-17T02:32:02.389Z,98377.13
2018-09-17T02:34:30.693Z,98381.85
2018-09-17T02:36:58.997Z,98366.71
2018-09-17T02:39:27.317Z,98382.45
2018-09-17T02:41:55.618Z,98380.41
2018-09-17T02:44:23.934Z,98376.17
2018-09-17T02:46:52.237Z,98381.85
2018-09-17T02:49:20.550Z,98382.80
2018-09-17T02:51:48.857Z,98381.76
2018-09-17T02:54:17.160Z,98382.45
2018-09-17T02:56:45.473Z,98391.25
2018-09-17T02:59:13.786Z,98391.08
2018-09-17T03:01:42.098Z,98379.38
2018-09-17T03:04:10.406Z,98384.45
2018-09-17T03:06:38.729Z,98379.69
2018-09-17T03:09:07.030Z,98379.55
2018-09-17T03:11:35.344Z,98384.57
2018-09-17T03:14:03.654Z,98384.00
2018-09-17T03:16:31.959Z,98384.19
2018-09-17T03:19:00.273Z,98387.88
2018-09-17T03:21:28.582Z,98388.66
2018-09-17T03:23:56.892Z,98388.40
2018-09-17T03:26:25.205Z,98390.96
2018-09-17T03:28:53.513Z,98395.16
2018-09-17T03:31:21.834Z,98388.02
2018-09-17T03:33:50.141Z,98392.74
2018-09-17T03:36:18.441Z,98390.78
2018-09-17T03:38:46.754Z,98399.09
2018-09-17T03:41:15.054Z,98397.68
2018-09-17T03:43:43.419Z,98410.98
2018-09-17T03:46:11.731Z,98410.77
2018-09-17T03:48:39.985Z,98412.73
2018-09-17T03:51:08.300Z,98405.50
2018-09-17T03:53:36.605Z,98417.30
2018-09-17T03:56:04.913Z,98410.45
2018-09-17T03:58:33.217Z,98408.21
2018-09-17T04:01:01.534Z,98419.52
2018-09-17T04:03:29.837Z,98417.22
2018-09-17T04:05:58.142Z,98422.83
2018-09-17T04:08:26.461Z,98423.77
2018-09-17T04:10:54.755Z,98428.49
2018-09-17T04:13:23.069Z,98428.66
2018-09-17T04:15:51.377Z,98432.55
2018-09-17T04:18:19.697Z,98438.45
2018-09-17T04:20:48.001Z,98440.52
2018-09-17T04:23:16.305Z,98439.21
2018-09-17T04:25:44.616Z,98437.34
2018-09-17T04:28:12.917Z,98445.95
2018-09-17T04:30:41.229Z,98439.36
2018-09-17T04:33:09.542Z,98441.37
2018-09-17T04:35:37.849Z,98441.25
2018-09-17T04:38:06.161Z,98432.84
2018-09-17T04:40:34.472Z,98437.77
2018-09-17T04:43:02.777Z,98437.45
2018-09-17T04:45:31.082Z,98435.83
2018-09-17T04:47:59.394Z,98433.40
2018-09-17T04:50:27.726Z,98444.63
2018-09-17T05:34:21.863Z,98454.77
2018-09-17T05:36:50.174Z,98449.20
2018-09-17T05:39:18.497Z,98449.40
2018-09-17T05:41:46.802Z,98448.34
2018-09-17T05:44:15.129Z,98449.53
2018-09-17T05:46:43.439Z,98453.69
2018-09-17T05:49:11.762Z,98456.46
2018-09-17T05:51:40.083Z,98458.69
2018-09-17T05:54:08.398Z,98460.73
2018-09-17T05:56:36.719Z,98455.14
2018-09-17T05:59:05.051Z,98455.83
2018-09-17T06:01:33.357Z,98454.88
2018-09-17T06:04:01.776Z,98456.31
2018-09-17T06:06:30.083Z,98454.14
2018-09-17T06:08:58.415Z,98455.19
2018-09-17T06:11:26.725Z,98460.43
2018-09-17T06:13:55.129Z,98458.95
2018-09-17T06:16:23.447Z,98455.39
2018-09-17T06:18:51.786Z,98455.30
2018-09-17T06:21:20.136Z,98458.67
2018-09-17T06:23:48.593Z,98454.45
2018-09-17T06:26:16.918Z,98458.61
2018-09-17T06:28:45.264Z,98459.11
2018-09-17T06:31:13.534Z,98465.86
2018-09-17T06:33:41.855Z,98461.95
2018-09-17T06:36:10.179Z,98469.31
2018-09-17T06:38:38.489Z,98464.81
2018-09-17T06:41:06.802Z,98467.80
2018-09-17T06:43:35.123Z,98468.97
2018-09-17T06:46:03.433Z,98467.48
2018-09-17T06:48:31.735Z,98471.56
2018-09-17T06:51:00.063Z,98470.05
2018-09-17T06:53:28.371Z,98467.17
2018-09-17T06:55:56.691Z,98469.61
2018-09-17T06:58:25.013Z,98469.50
2018-09-17T07:00:53.326Z,98463.23
2018-09-17T07:03:21.644Z,98458.81
2018-09-17T07:05:49.943Z,98464.13
2018-09-17T07:08:18.266Z,98461.37
2018-09-17T07:10:46.586Z,98471.70
2018-09-17T07:13:14.894Z,98473.91
2018-09-17T07:15:43.203Z,98477.58
2018-09-17T07:21:08.545Z,98472.59
2018-09-17T07:23:36.857Z,98485.38
2018-09-17T07:26:05.159Z,98484.19
2018-09-17T07:28:33.469Z,98480.81
2018-09-17T07:31:01.777Z,98478.03
2018-09-17T07:33:30.085Z,98471.01
2018-09-17T07:35:58.445Z,98476.48
2018-09-17T07:38:26.769Z,98472.17
2018-09-17T07:40:55.141Z,98466.49
2018-09-17T07:43:23.434Z,98465.01
2018-09-17T07:45:51.836Z,98472.28
2018-09-17T07:48:20.172Z,98472.05
2018-09-17T07:50:48.490Z,98463.83
2018-09-17T07:53:16.813Z,98469.55
2018-09-17T07:55:45.098Z,98472.89
2018-09-17T07:58:13.430Z,98472.68
2018-09-17T08:00:41.836Z,98466.83
2018-09-17T08:03:10.230Z,98470.94
2018-09-17T08:05:38.543Z,98469.74
2018-09-17T08:08:06.896Z,98470.61
2018-09-17T08:10:35.150Z,98463.05
2018-09-17T08:13:03.440Z,98468.72
2018-09-17T08:15:31.783Z,98457.72
2018-09-17T08:18:00.082Z,98466.73
2018-09-17T08:20:28.430Z,98458.88
2018-09-17T08:22:56.733Z,98462.88
2018-09-17T08:25:25.134Z,98462.61
2018-09-17T08:27:53.428Z,98461.01
2018-09-17T08:30:21.765Z,98461.08
2018-09-17T08:32:50.095Z,98462.86
2018-09-17T08:35:18.400Z,98462.79
2018-09-17T08:37:46.713Z,98461.97
2018-09-17T08:40:15.028Z,98458.17
2018-09-17T08:42:43.341Z,98458.75
2018-09-17T08:45:11.698Z,98455.95
2018-09-17T08:47:40.029Z,98460.27
2018-09-17T08:50:08.350Z,98459.68
2018-09-17T08:52:36.712Z,98460.33
2018-09-17T08:55:05.018Z,98454.63
2018-09-17T08:57:33.324Z,98459.02
2018-09-17T09:00:01.663Z,98455.31
2018-09-17T09:02:29.976Z,98456.46
2018-09-17T09:04:58.338Z,98455.61
2018-09-17T09:07:26.613Z,98456.23
2018-09-17T09:09:54.918Z,98448.75
2018-09-17T09:12:23.228Z,98451.35
2018-09-17T09:14:51.542Z,98442.52
2018-09-17T09:17:19.840Z,98444.83
2018-09-17T09:19:48.160Z,98435.83
2018-09-17T09:22:16.483Z,98430.89
2018-09-17T09:24:44.779Z,98428.12
2018-09-17T09:27:13.090Z,98429.98
2018-09-17T09:29:41.387Z,98418.85
2018-09-17T09:32:09.726Z,98422.54
2018-09-17T09:34:38.048Z,98412.59
2018-09-17T09:37:06.361Z,98416.59
2018-09-17T09:39:34.682Z,98410.06
2018-09-17T09:42:03.013Z,98406.45
2018-09-17T09:44:31.321Z,98404.88
2018-09-17T09:46:59.611Z,98406.02
2018-09-17T09:49:27.918Z,98402.79
2018-09-17T09:51:56.221Z,98403.62
2018-09-17T09:54:24.529Z,98407.64
2018-09-17T09:56:52.833Z,98407.03
2018-09-17T09:59:21.141Z,98404.49
2018-09-17T10:01:49.473Z,98399.48
2018-09-17T10:04:17.764Z,98399.20
2018-09-17T10:06:46.072Z,98402.73
2018-09-17T10:09:14.399Z,98400.34
2018-09-17T10:20:56.337Z,98397.48
2018-09-17T10:23:24.629Z,98382.99
2018-09-17T10:25:52.957Z,98388.49
2018-09-17T10:28:21.250Z,98387.32
2018-09-17T10:30:49.554Z,98386.16
2018-09-17T10:33:17.858Z,98379.94
2018-09-17T10:35:46.155Z,98381.23
2018-09-17T10:38:14.502Z,98383.07
2018-09-17T10:40:42.793Z,98383.66
2018-09-17T10:43:11.089Z,98375.63
2018-09-17T10:45:39.398Z,98371.63
2018-09-17T10:48:07.702Z,98368.03
2018-09-17T10:50:36.009Z,98371.47
2018-09-17T10:53:04.313Z,98361.61
2018-09-17T10:55:32.602Z,98357.76
2018-09-17T10:58:00.908Z,98367.42
2018-09-17T11:00:29.197Z,98362.59
2018-09-17T11:02:57.512Z,98358.20
2018-09-17T11:05:25.805Z,98360.59
2018-09-17T11:07:54.108Z,98352.34
2018-09-17T11:10:22.399Z,98358.78
2018-09-17T11:12:50.713Z,98355.14
2018-09-17T11:15:19.029Z,98349.13
2018-09-17T11:17:47.345Z,98348.50
2018-09-17T11:20:15.651Z,98346.72
2018-09-17T11:22:43.962Z,98341.05
2018-09-17T11:25:12.310Z,98345.27
2018-09-17T11:27:40.562Z,98347.13
2018-09-17T11:30:08.886Z,98344.70
2018-09-17T11:32:37.187Z,98338.07
2018-09-17T11:35:05.470Z,98338.64
2018-09-17T11:37:33.769Z,98337.03
2018-09-17T11:40:02.066Z,98331.59
2018-09-17T11:42:30.369Z,98324.97
2018-09-17T11:44:58.666Z,98322.56
2018-09-17T11:47:26.970Z,98323.13
2018-09-17T11:49:55.270Z,98311.08
2018-09-17T11:52:23.565Z,98309.06
2018-09-17T11:54:51.903Z,98310.64
2018-09-17T11:57:20.202Z,98309.02
2018-09-17T11:59:48.526Z,98304.22
2018-09-17T12:02:16.896Z,98303.28
2018-09-17T12:04:45.584Z,98297.89
2018-09-17T12:07:14.497Z,98296.52
2018-09-17T12:09:42.829Z,98290.24
2018-09-17T12:12:11.125Z,98281.51
2018-09-17T12:14:39.430Z,98282.95
2018-09-17T12:17:07.717Z,98279.14
2018-09-17T12:19:36.007Z,98276.70
2018-09-17T12:22:04.312Z,98274.66
2018-09-17T12:24:32.811Z,98277.69
2018-09-17T12:27:01.077Z,98273.05
2018-09-17T12:29:29.374Z,98270.43
2018-09-17T12:31:57.679Z,98268.19
2018-09-17T12:34:25.975Z,98269.19
2018-09-17T12:36:54.281Z,98261.86
2018-09-17T12:39:22.590Z,98256.05
2018-09-17T12:41:50.989Z,98257.26
2018-09-17T12:44:19.302Z,98248.27
2018-09-17T12:46:47.656Z,98243.58
2018-09-17T12:49:15.954Z,98244.72
2018-09-17T12:51:44.263Z,98235.25
2018-09-17T12:54:12.557Z,98236.45
2018-09-17T12:56:40.865Z,98226.73
2018-09-17T12:59:09.167Z,98221.94
2018-09-17T13:01:37.457Z,98222.91
2018-09-17T13:04:05.761Z,98218.48
2018-09-17T13:06:34.058Z,98213.92
2018-09-17T13:09:02.367Z,98213.41
2018-09-17T13:11:30.677Z,98211.61
2018-09-17T13:13:58.961Z,98211.33
2018-09-17T13:16:27.284Z,98200.06
2018-09-17T13:18:55.565Z,98205.39
2018-09-17T13:21:23.870Z,98201.28
2018-09-17T13:23:52.174Z,98199.53
2018-09-17T13:26:20.482Z,98196.38
2018-09-17T13:28:48.769Z,98200.98
2018-09-17T13:31:17.057Z,98197.05
2018-09-17T13:33:45.386Z,98196.27
2018-09-17T13:36:13.690Z,98195.53
2018-09-17T13:38:41.986Z,98193.18
2018-09-17T13:41:10.282Z,98193.26
2018-09-17T13:43:38.595Z,98189.66
2018-09-17T13:46:06.891Z,98178.38
2018-09-17T13:48:35.183Z,98178.91
2018-09-17T13:51:03.486Z,98183.59
2018-09-17T13:53:31.894Z,98180.53
2018-09-17T13:56:00.147Z,98181.66
2018-09-17T13:58:28.437Z,98176.25
2018-09-17T14:00:56.763Z,98174.21
2018-09-17T14:03:25.069Z,98170.28
2018-09-17T14:05:53.354Z,98162.84
2018-09-17T14:08:21.654Z,98158.27
2018-09-17T14:10:50.155Z,98161.77
2018-09-17T14:13:18.457Z,98156.56
2018-09-17T14:15:46.728Z,98154.80
2018-09-17T14:18:15.065Z,98149.23
2018-09-17T14:20:43.341Z,98149.19
2018-09-17T14:23:11.626Z,98143.20
2018-09-17T14:25:39.929Z,98144.68
2018-09-17T14:28:08.235Z,98144.99
2018-09-17T14:30:36.548Z,98147.35
2018-09-17T14:36:06.328Z,98143.59
2018-09-17T14:38:34.631Z,98138.92
2018-09-17T14:41:02.973Z,98138.63
2018-09-17T14:43:31.321Z,98139.58
2018-09-17T14:45:59.590Z,98136.88
2018-09-17T14:48:27.848Z,98128.36
2018-09-17T14:50:56.154Z,98123.01
2018-09-17T14:53:24.465Z,98128.22
2018-09-17T14:55:52.737Z,98121.55
2018-09-17T14:58:21.147Z,98117.81
2018-09-17T15:00:49.333Z,98117.91
2018-09-17T15:03:17.637Z,98114.48
2018-09-17T15:05:45.977Z,98118.86
2018-09-17T15:08:14.318Z,98110.28
2018-09-17T15:10:42.566Z,98111.20
2018-09-17T15:13:10.878Z,98108.58
2018-09-17T15:15:39.181Z,98111.53
2018-09-17T15:18:07.482Z,98111.92
2018-09-17T15:20:35.790Z,98109.65
2018-09-17T15:23:04.082Z,98113.59
2018-09-17T15:25:32.373Z,98106.57
2018-09-17T15:28:00.754Z,98106.95
2018-09-17T15:30:28.969Z,98103.41
2018-09-17T15:32:57.282Z,98106.31
2018-09-17T15:35:25.565Z,98098.95
2018-09-17T15:37:53.870Z,98091.33
2018-09-17T15:40:22.243Z,98093.81
2018-09-17T15:42:50.460Z,98086.72
2018-09-17T15:45:18.753Z,98092.41
2018-09-17T15:47:47.041Z,98080.42
2018-09-17T15:50:15.357Z,98080.84
2018-09-17T15:52:43.625Z,98081.23
2018-09-17T15:55:11.946Z,98084.53
2018-09-17T15:57:40.236Z,98080.45
2018-09-17T16:00:08.548Z,98078.87
2018-09-17T16:02:36.907Z,98079.61
2018-09-17T16:05:05.110Z,98076.17
2018-09-17T16:07:33.418Z,98069.39
2018-09-17T16:10:01.714Z,98070.07
2018-09-17T16:12:30.099Z,98070.67
2018-09-17T16:14:58.353Z,98072.81
2018-09-17T16:17:26.654Z,98070.29
2018-09-17T16:19:55.017Z,98070.74
2018-09-17T16:22:23.255Z,98073.96
2018-09-17T16:24:51.553Z,98072.33
2018-09-17T16:27:19.849Z,98076.27
2018-09-17T16:29:48.158Z,98072.85
2018-09-17T16:32:16.449Z,98071.24
2018-09-17T16:34:44.848Z,98070.86
2018-09-17T16:37:13.266Z,98066.90
2018-09-17T16:39:41.595Z,98067.72
2018-09-17T16:42:09.889Z,98072.91
2018-09-17T16:44:38.180Z,98070.95
2018-09-17T16:47:06.534Z,98075.58
2018-09-17T16:49:34.822Z,98068.34
2018-09-17T16:52:03.193Z,98071.77
2018-09-17T16:54:31.477Z,98062.50
2018-09-17T16:56:59.765Z,98061.08
2018-09-17T16:59:28.078Z,98059.72
2018-09-17T17:01:56.363Z,98061.73
2018-09-17T17:04:24.662Z,98064.55
2018-09-17T17:06:52.963Z,98062.14
2018-09-17T17:09:21.266Z,98060.55
2018-09-17T17:11:49.637Z,98052.50
2018-09-17T17:14:18.190Z,98051.91
2018-09-17T17:16:46.523Z,98060.36
2018-09-17T17:19:14.903Z,98062.52
2018-09-17T17:21:43.183Z,98060.30
2018-09-17T17:24:11.425Z,98062.89
2018-09-17T17:26:39.718Z,98064.88
2018-09-17T17:29:08.006Z,98054.45
2018-09-17T17:31:36.299Z,98054.41
2018-09-17T17:34:04.627Z,98055.21
2018-09-17T17:36:32.910Z,98034.89
2018-09-17T17:39:01.218Z,98064.22
2018-09-17T17:41:29.515Z,98053.32
2018-09-17T17:43:57.826Z,98057.27
2018-09-17T17:46:26.124Z,98058.48
2018-09-17T17:48:54.409Z,98060.62
2018-09-17T17:51:22.815Z,98061.02
2018-09-17T17:53:51.125Z,98064.22
2018-09-17T17:56:19.453Z,98065.52
2018-09-17T17:58:47.749Z,98066.86
2018-09-17T18:01:16.143Z,98061.45
2018-09-17T18:03:44.410Z,98069.71
2018-09-17T18:06:12.765Z,98070.00
2018-09-17T18:08:43.642Z,98072.55
2018-09-17T18:11:11.953Z,98077.31
2018-09-17T18:13:40.257Z,98078.25
2018-09-17T18:16:08.565Z,98079.05
2018-09-17T18:18:36.927Z,98077.64
2018-09-17T18:21:05.283Z,98083.93
2018-09-17T18:23:33.537Z,98084.17
2018-09-17T18:26:01.885Z,98091.84
2018-09-17T18:28:30.233Z,98084.88
2018-09-17T18:30:58.562Z,98082.47
2018-09-17T18:33:26.862Z,98080.76
2018-09-17T18:35:55.175Z,98083.48
2018-09-17T18:38:23.814Z,98081.77
2018-09-17T18:40:52.186Z,98077.59
2018-09-17T18:43:20.515Z,98078.34
2018-09-17T18:45:48.811Z,98080.47
2018-09-17T18:48:17.241Z,98086.00
2018-09-17T18:50:45.568Z,98081.73
2018-09-17T18:53:14.016Z,98086.88
2018-09-17T18:55:52.216Z,98085.61
2018-09-17T18:58:23.276Z,98081.72
2018-09-17T19:00:51.577Z,98088.45
2018-09-17T19:03:19.977Z,98091.61
2018-09-17T19:05:48.462Z,98091.89
2018-09-17T19:08:16.730Z,98085.78
2018-09-17T19:10:45.030Z,98085.16
2018-09-17T19:13:13.345Z,98081.58
2018-09-17T19:15:49.153Z,98086.43
2018-09-17T19:18:17.521Z,98085.95
2018-09-17T19:20:45.992Z,98078.09
2018-09-17T19:26:14.296Z,98078.81
2018-09-17T19:31:47.171Z,98080.74
2018-09-17T19:34:17.562Z,98082.13
2018-09-17T19:36:45.849Z,98090.45
2018-09-17T19:42:12.513Z,98086.83
2018-09-17T19:44:40.745Z,98086.91
2018-09-17T19:47:09.066Z,98091.86
2018-09-17T19:49:37.560Z,98091.66
2018-09-17T19:52:21.477Z,98097.30
2018-09-17T19:54:49.864Z,98100.45
2018-09-17T19:57:18.161Z,98092.62
2018-09-17T19:59:47.814Z,98095.77
2018-09-17T20:02:16.165Z,98094.98
2018-09-17T20:04:44.479Z,98096.86
2018-09-17T20:07:12.804Z,98096.95
2018-09-17T20:09:41.101Z,98091.42
2018-09-17T20:12:09.402Z,98095.36
2018-09-17T20:14:37.726Z,98093.34
2018-09-17T20:17:06.009Z,98092.95
2018-09-17T20:19:34.313Z,98088.11
2018-09-17T20:22:02.630Z,98084.89
2018-09-17T20:24:30.928Z,98082.98
2018-09-17T20:26:59.241Z,98087.61
2018-09-17T20:29:27.538Z,98091.16
2018-09-17T20:31:55.843Z,98088.23
2018-09-17T20:34:24.139Z,98087.78
2018-09-17T20:36:52.450Z,98085.51
2018-09-17T20:39:20.759Z,98083.38
2018-09-17T20:41:49.050Z,98083.47
2018-09-17T20:44:17.701Z,98082.95
2018-09-17T20:46:46.009Z,98079.73
2018-09-17T20:49:14.410Z,98077.66
2018-09-17T20:51:42.609Z,98078.03
2018-09-17T20:54:10.923Z,98074.22
2018-09-17T20:56:39.225Z,98070.92
2018-09-17T20:59:07.637Z,98070.41
2018-09-17T21:01:35.984Z,98068.50
2018-09-17T21:04:04.229Z,98068.40
2018-09-17T21:06:32.525Z,98077.38
2018-09-17T21:09:00.836Z,98070.17
2018-09-17T21:11:29.135Z,98069.15
2018-09-17T21:13:57.445Z,98065.03
2018-09-17T21:16:25.734Z,98065.68
2018-09-17T21:18:54.140Z,98065.11
2018-09-17T21:21:22.353Z,98060.20
2018-09-17T21:23:50.650Z,98068.47
2018-09-17T21:26:19.969Z,98057.63
2018-09-17T21:28:48.261Z,98059.32
2018-09-17T21:31:16.633Z,98059.45
2018-09-17T21:33:44.936Z,98051.73
2018-09-17T21:36:13.437Z,98055.51
2018-09-17T21:38:41.717Z,98053.37
2018-09-17T21:41:10.017Z,98060.23
2018-09-17T21:43:38.329Z,98057.00
2018-09-17T21:46:06.837Z,98057.00
2018-09-17T21:48:55.863Z,98050.23
2018-09-17T21:51:30.645Z,98036.22
2018-09-17T21:53:58.957Z,98055.54
2018-09-17T21:56:27.249Z,98048.05
2018-09-17T21:58:55.558Z,98049.66
2018-09-17T22:01:23.874Z,98053.26
2018-09-17T22:03:52.177Z,98050.77
2018-09-17T22:06:20.509Z,98044.75
2018-09-17T22:08:48.824Z,98049.14
2018-09-17T22:11:17.122Z,98046.28
2018-09-17T22:13:45.422Z,98040.69
2018-09-17T22:16:13.713Z,98036.73
2018-09-17T22:18:42.022Z,98032.66
2018-09-17T22:21:10.322Z,98034.55
2018-09-17T22:23:38.621Z,98035.42
2018-09-17T22:26:06.938Z,98027.86
2018-09-17T22:28:35.253Z,98039.73
2018-09-17T22:31:03.546Z,98041.73
2018-09-17T22:33:31.851Z,98038.87
2018-09-17T22:36:00.174Z,98035.92
2018-09-17T22:38:28.469Z,98038.97
2018-09-17T22:40:56.766Z,98026.84
2018-09-17T22:43:25.067Z,98037.05
2018-09-17T22:45:53.369Z,98036.91
2018-09-17T22:48:21.666Z,98033.69
2018-09-17T22:50:49.961Z,98030.16
2018-09-17T22:53:18.266Z,98030.41
2018-09-17T22:55:46.565Z,98039.16
2018-09-17T22:58:14.873Z,98038.84
2018-09-17T23:00:43.166Z,98040.36
2018-09-17T23:03:11.485Z,98035.39
2018-09-17T23:05:39.786Z,98035.78
2018-09-17T23:08:08.093Z,98032.75
2018-09-17T23:10:36.409Z,98039.70
2018-09-17T23:13:04.715Z,98034.52
2018-09-17T23:15:33.033Z,98032.95
2018-09-17T23:18:01.343Z,98032.14
2018-09-17T23:20:29.697Z,98031.22
2018-09-17T23:22:57.954Z,98033.26
2018-09-17T23:25:26.246Z,98033.02
2018-09-17T23:27:54.597Z,98026.69
2018-09-17T23:30:22.895Z,98024.01
2018-09-17T23:32:51.198Z,98028.06
2018-09-17T23:35:19.501Z,98029.36
2018-09-17T23:37:47.815Z,98029.94
2018-09-17T23:40:16.116Z,98029.55
2018-09-17T23:42:44.409Z,98021.53
2018-09-17T23:45:12.718Z,98022.44
2018-09-17T23:47:41.020Z,98022.62
2018-09-17T23:50:09.317Z,98013.13
2018-09-17T23:52:37.725Z,98012.10
2018-09-17T23:55:06.258Z,98024.02
2018-09-17T23:57:34.553Z,98024.67
